createdAt,value
2024-05-09T00:03:36.230Z,62.76
2024-05-09T00:08:37.823Z,62.56
2024-05-09T00:13:39.372Z,62.33
2024-05-09T00:18:40.973Z,62.56
2024-05-09T00:23:42.596Z,62.99
2024-05-09T00:28:44.304Z,62.99
2024-05-09T00:33:45.898Z,62.98
2024-05-09T00:38:47.583Z,63.28
2024-05-09T00:43:49.201Z,63.30
2024-05-09T00:48:51.025Z,63.30
2024-05-09T00:53:52.957Z,63.42
2024-05-09T00:58:55.320Z,63.89
2024-05-09T01:03:57.991Z,63.82
2024-05-09T01:08:59.723Z,63.46
2024-05-09T01:14:01.355Z,63.83
2024-05-09T01:19:04.508Z,64.50
2024-05-09T01:24:06.614Z,64.01
2024-05-09T01:29:08.202Z,64.15
2024-05-09T01:34:10.294Z,64.41
2024-05-09T01:39:11.869Z,64.30
2024-05-09T01:44:13.624Z,64.14
2024-05-09T01:49:15.535Z,64.60
2024-05-09T01:54:17.203Z,64.99
2024-05-09T01:59:19.600Z,65.01
2024-05-09T02:04:26.591Z,64.53
2024-05-09T02:09:28.454Z,64.33
2024-05-09T02:14:30.168Z,64.48
2024-05-09T02:19:32.134Z,64.94
2024-05-09T02:24:33.836Z,64.71
2024-05-09T02:29:35.547Z,64.56
2024-05-09T02:34:37.168Z,64.58
2024-05-09T02:39:38.684Z,64.73
2024-05-09T02:44:40.205Z,64.96
2024-05-09T02:49:41.709Z,65.02
2024-05-09T02:54:43.212Z,65.22
2024-05-09T02:59:44.722Z,64.70
2024-05-09T03:04:46.396Z,65.07
2024-05-09T03:09:48.014Z,65.23
2024-05-09T03:14:50.438Z,64.99
2024-05-09T03:19:52.081Z,65.47
2024-05-09T03:24:53.686Z,65.72
2024-05-09T03:29:55.213Z,65.35
2024-05-09T03:34:56.753Z,65.07
2024-05-09T03:39:58.272Z,65.32
2024-05-09T03:44:59.773Z,65.87
2024-05-09T03:50:01.702Z,66.07
2024-05-09T03:55:03.228Z,65.57
2024-05-09T04:00:07.493Z,65.85
2024-05-09T04:05:11.236Z,65.13
2024-05-09T04:10:21.068Z,65.02
2024-05-09T04:15:29.955Z,65.60
2024-05-09T04:20:38.189Z,65.27
2024-05-09T04:25:46.756Z,65.30
2024-05-09T04:30:48.385Z,65.04
2024-05-09T04:35:50.010Z,65.54
2024-05-09T04:40:51.574Z,64.99
2024-05-09T04:45:53.496Z,65.48
2024-05-09T04:50:55.116Z,65.02
2024-05-09T04:55:56.681Z,65.43
2024-05-09T05:00:58.290Z,65.19
2024-05-09T05:06:00.005Z,64.91
2024-05-09T05:11:01.711Z,65.08
2024-05-09T05:16:03.421Z,64.81
2024-05-09T05:21:05.426Z,64.61
2024-05-09T05:26:07.042Z,64.87
2024-05-09T05:31:08.648Z,64.69
2024-05-09T05:36:10.557Z,64.70
2024-05-09T05:41:12.198Z,64.27
2024-05-09T05:46:13.793Z,64.39
2024-05-09T05:51:15.772Z,64.17
2024-05-09T05:56:17.844Z,64.01
2024-05-09T06:01:19.753Z,63.77
2024-05-09T06:06:21.494Z,63.68
2024-05-09T06:11:23.228Z,63.44
2024-05-09T06:16:24.896Z,63.39
2024-05-09T06:21:26.548Z,63.05
2024-05-09T06:26:28.147Z,63.31
2024-05-09T06:31:29.835Z,63.13
2024-05-09T06:36:31.436Z,62.64
2024-05-09T06:41:33.044Z,62.57
2024-05-09T06:46:34.680Z,62.67
2024-05-09T06:51:39.821Z,62.27
2024-05-09T06:56:41.635Z,61.69
2024-05-09T07:01:43.435Z,62.04
2024-05-09T07:06:46.006Z,61.33
2024-05-09T07:11:48.237Z,60.87
2024-05-09T07:16:50.156Z,60.88
2024-05-09T07:21:52.000Z,61.01
2024-05-09T07:26:54.031Z,60.73
2024-05-09T07:31:55.790Z,59.87
2024-05-09T07:36:57.520Z,59.80
2024-05-09T07:41:59.638Z,59.44
2024-05-09T07:57:11.261Z,58.86
2024-05-09T08:02:13.136Z,58.24
2024-05-09T08:07:15.284Z,57.92
2024-05-09T08:12:17.969Z,57.10
2024-05-09T08:17:21.446Z,56.61
2024-05-09T08:22:23.476Z,57.08
2024-05-09T08:27:27.186Z,56.34
2024-05-09T08:32:32.115Z,56.22
2024-05-09T08:37:38.690Z,55.40
2024-05-09T08:42:49.149Z,54.79
2024-05-09T08:47:52.693Z,53.79
2024-05-09T08:52:54.385Z,53.50
2024-05-09T08:57:56.171Z,51.77
2024-05-09T09:03:00.088Z,51.45
2024-05-09T09:08:06.227Z,50.04
2024-05-09T09:13:09.743Z,49.89
2024-05-09T09:18:13.908Z,48.30
2024-05-09T09:23:15.593Z,47.20
2024-05-09T09:28:17.612Z,46.01
2024-05-09T09:33:19.468Z,45.32
2024-05-09T09:38:23.292Z,44.59
2024-05-09T09:43:26.169Z,43.77
2024-05-09T09:48:30.852Z,42.61
2024-05-09T09:53:33.633Z,41.81
2024-05-09T09:58:37.807Z,41.22
2024-05-09T10:03:39.894Z,40.19
2024-05-09T10:08:42.379Z,39.59
2024-05-09T10:13:44.118Z,38.90
2024-05-09T10:18:45.728Z,38.42
2024-05-09T10:23:57.662Z,38.09
2024-05-09T10:28:59.644Z,36.34
2024-05-09T10:34:05.438Z,36.48
2024-05-09T10:39:07.223Z,36.01
2024-05-09T10:44:14.072Z,36.04
2024-05-09T10:49:15.820Z,35.67
2024-05-09T10:54:17.414Z,34.80
2024-05-09T10:59:18.930Z,34.49
2024-05-09T11:04:20.599Z,34.82
2024-05-09T11:09:22.606Z,34.57
2024-05-09T11:14:24.162Z,33.80
2024-05-09T11:19:30.376Z,33.35
2024-05-09T11:24:32.781Z,34.30
2024-05-09T11:29:38.121Z,32.84
2024-05-09T11:34:41.994Z,32.85
2024-05-09T11:39:44.020Z,32.33
2024-05-09T11:44:45.667Z,30.23
2024-05-09T11:49:47.384Z,24.32
2024-05-09T11:54:49.516Z,20.17
2024-05-09T11:59:51.293Z,18.28
2024-05-09T12:04:52.988Z,17.90
2024-05-09T12:09:54.695Z,17.54
2024-05-09T12:14:56.533Z,16.18
2024-05-09T12:19:58.162Z,16.78
2024-05-09T12:24:59.819Z,15.60
2024-05-09T12:30:01.513Z,15.24
2024-05-09T12:35:03.103Z,14.75
2024-05-09T12:40:08.821Z,14.21
2024-05-09T12:45:12.168Z,14.89
2024-05-09T12:50:21.956Z,17.23
2024-05-09T12:55:28.092Z,17.32
2024-05-09T13:00:33.760Z,19.13
2024-05-09T13:05:36.114Z,17.46
2024-05-09T13:10:37.816Z,16.60
2024-05-09T13:15:40.078Z,17.74
2024-05-09T13:20:41.972Z,16.61
2024-05-09T13:25:43.524Z,14.99
2024-05-09T13:30:45.129Z,14.74
2024-05-09T13:35:49.812Z,15.72
2024-05-09T13:40:52.854Z,14.00
2024-05-09T13:45:57.274Z,14.44
2024-05-09T13:50:58.941Z,14.67
2024-05-09T13:56:00.688Z,15.10
2024-05-09T14:01:02.386Z,14.39
2024-05-09T14:06:04.330Z,16.51
2024-05-09T14:11:06.023Z,17.88
2024-05-09T14:16:08.051Z,17.51
2024-05-09T14:21:09.744Z,16.04
2024-05-09T14:26:11.414Z,16.42
2024-05-09T14:31:13.095Z,17.68
2024-05-09T14:36:14.911Z,17.75
2024-05-09T14:41:16.806Z,17.27
2024-05-09T14:46:18.670Z,16.21
2024-05-09T14:51:20.910Z,15.72
2024-05-09T14:56:22.789Z,16.83
2024-05-09T15:01:25.338Z,16.92
2024-05-09T15:06:27.232Z,17.76
2024-05-09T15:11:29.326Z,17.82
2024-05-09T15:16:31.299Z,17.75
2024-05-09T15:21:33.257Z,18.62
2024-05-09T15:26:36.356Z,18.15
2024-05-09T15:31:38.117Z,19.12
2024-05-09T15:36:41.790Z,19.02
2024-05-09T15:41:44.999Z,19.32
2024-05-09T15:46:47.565Z,19.21
2024-05-09T15:51:49.373Z,19.27
2024-05-09T15:56:51.134Z,19.09
2024-05-09T16:01:52.999Z,19.41
2024-05-09T16:06:55.000Z,20.16
2024-05-09T16:11:56.832Z,19.90
2024-05-09T16:16:59.193Z,19.83
2024-05-09T16:22:02.491Z,20.38
2024-05-09T16:27:04.833Z,20.31
2024-05-09T16:32:07.052Z,19.95
2024-05-09T16:37:11.045Z,20.44
2024-05-09T16:42:12.978Z,20.91
2024-05-09T16:47:15.120Z,21.02
2024-05-09T16:52:17.518Z,21.44
2024-05-09T16:57:19.834Z,21.44
2024-05-09T17:02:23.672Z,21.73
2024-05-09T17:07:26.382Z,21.96
2024-05-09T17:12:28.936Z,22.18
2024-05-09T17:17:31.162Z,22.28
2024-05-09T17:22:35.237Z,22.30
2024-05-09T17:27:37.452Z,22.60
2024-05-09T17:32:39.386Z,22.42
2024-05-09T17:37:41.387Z,22.81
2024-05-09T17:42:43.193Z,22.67
2024-05-09T17:47:45.668Z,22.96
2024-05-09T17:52:50.072Z,23.84
2024-05-09T17:57:52.978Z,24.04
2024-05-09T18:02:55.993Z,25.10
2024-05-09T18:07:58.079Z,25.73
2024-05-09T18:13:01.205Z,26.85
2024-05-09T18:18:10.832Z,27.67
2024-05-09T18:23:16.474Z,27.42
2024-05-09T18:28:20.566Z,28.54
2024-05-09T18:33:22.944Z,29.96
2024-05-09T18:38:26.949Z,31.38
2024-05-09T18:43:35.198Z,32.63
2024-05-09T18:48:43.833Z,33.42
2024-05-09T18:53:46.255Z,33.95
2024-05-09T18:58:48.147Z,34.75
2024-05-09T19:03:50.452Z,35.63
2024-05-09T19:08:52.366Z,36.59
2024-05-09T19:13:54.654Z,37.16
2024-05-09T19:18:57.584Z,37.51
2024-05-09T19:24:00.622Z,38.39
2024-05-09T19:29:03.827Z,38.94
2024-05-09T19:34:05.650Z,39.56
2024-05-09T19:39:08.392Z,40.38
2024-05-09T19:44:10.105Z,40.99
2024-05-09T19:49:12.379Z,40.96
2024-05-09T19:54:14.471Z,41.74
2024-05-09T19:59:16.242Z,42.67
2024-05-09T20:04:18.127Z,43.17
2024-05-09T20:09:20.256Z,43.64
2024-05-09T20:14:22.443Z,43.65
2024-05-09T20:19:24.401Z,44.05
2024-05-09T20:24:26.261Z,44.67
2024-05-09T20:29:28.077Z,45.64
2024-05-09T20:34:29.969Z,46.47
2024-05-09T20:39:31.952Z,47.37
2024-05-09T20:44:33.748Z,47.68
2024-05-09T20:49:35.636Z,48.31
2024-05-09T20:54:37.545Z,48.84
2024-05-09T20:59:39.529Z,49.29
2024-05-09T21:04:41.370Z,49.37
2024-05-09T21:09:43.288Z,50.11
2024-05-09T21:14:45.094Z,50.50
2024-05-09T21:19:46.718Z,50.96
2024-05-09T21:24:48.507Z,51.41
2024-05-09T21:29:50.282Z,51.56
2024-05-09T21:34:52.300Z,51.74
2024-05-09T21:39:53.966Z,51.97
2024-05-09T21:44:55.906Z,52.66
2024-05-09T21:49:58.267Z,52.89
2024-05-09T21:55:00.061Z,53.71
2024-05-09T22:00:01.844Z,53.67
2024-05-09T22:05:04.031Z,53.66
2024-05-09T22:10:12.856Z,54.24
2024-05-09T22:15:21.586Z,53.83
2024-05-09T22:20:32.823Z,54.29
2024-05-09T22:25:39.204Z,54.49
2024-05-09T22:30:41.521Z,55.12
2024-05-09T22:35:43.492Z,55.17
2024-05-09T22:40:48.800Z,55.27
2024-05-09T22:45:52.983Z,55.97
2024-05-09T22:50:55.237Z,55.98
2024-05-09T22:55:59.609Z,56.27
2024-05-09T23:01:01.395Z,56.62
2024-05-09T23:06:06.379Z,56.63
2024-05-09T23:11:08.291Z,56.81
2024-05-09T23:16:10.206Z,57.34
2024-05-09T23:21:12.086Z,57.51
2024-05-09T23:26:14.009Z,57.71
2024-05-09T23:31:15.839Z,57.96
2024-05-09T23:36:17.688Z,58.02
2024-05-09T23:41:19.536Z,57.99
2024-05-09T23:46:21.355Z,58.15
2024-05-09T23:51:23.095Z,58.48
2024-05-09T23:56:25.028Z,58.54
